createdAt,value
2023-01-13T00:04:14.965Z,13.20
2023-01-13T00:09:17.970Z,13.20
2023-01-13T00:14:22.365Z,13.10
2023-01-13T00:19:25.429Z,13.20
2023-01-13T00:24:28.505Z,13.30
2023-01-13T00:29:32.841Z,13.20
2023-01-13T00:34:35.895Z,13.20
2023-01-13T00:39:38.879Z,13.20
2023-01-13T00:44:43.181Z,13.20
2023-01-13T00:49:46.179Z,13.10
2023-01-13T00:54:49.154Z,13.00
2023-01-13T00:59:55.534Z,12.90
2023-01-13T01:05:00.083Z,12.80
2023-01-13T01:10:03.173Z,12.90
2023-01-13T01:15:10.117Z,12.80
2023-01-13T01:20:13.474Z,12.90
2023-01-13T01:25:16.632Z,12.90
2023-01-13T01:30:21.109Z,12.90
2023-01-13T01:35:24.273Z,12.90
2023-01-13T01:40:28.180Z,12.90
2023-01-13T01:45:32.885Z,12.80
2023-01-13T01:50:36.994Z,12.80
2023-01-13T01:55:40.612Z,12.80
2023-01-13T02:00:45.139Z,12.90
2023-01-13T02:05:48.550Z,12.90
2023-01-13T02:10:54.985Z,12.80
2023-01-13T02:16:06.944Z,12.90
2023-01-13T02:21:42.946Z,12.90
2023-01-13T02:27:16.172Z,12.80
2023-01-13T02:32:27.574Z,12.80
2023-01-13T02:37:34.555Z,12.80
2023-01-13T02:42:58.993Z,13.00
2023-01-13T02:48:07.191Z,12.90
2023-01-13T02:53:15.666Z,12.90
2023-01-13T02:58:22.299Z,12.80
2023-01-13T03:03:26.598Z,12.90
2023-01-13T03:08:42.750Z,12.90
2023-01-13T03:14:06.435Z,12.80
2023-01-13T03:19:18.465Z,12.90
2023-01-13T03:24:27.669Z,12.70
2023-01-13T03:29:36.013Z,12.90
2023-01-13T03:34:47.383Z,12.90
2023-01-13T03:39:55.590Z,12.90
2023-01-13T03:45:02.538Z,12.90
2023-01-13T03:50:10.765Z,12.80
2023-01-13T03:55:16.067Z,12.90
2023-01-13T04:00:20.612Z,12.90
2023-01-13T04:05:26.046Z,12.80
2023-01-13T04:10:32.655Z,12.90
2023-01-13T04:15:39.676Z,13.00
2023-01-13T04:20:45.680Z,12.90
2023-01-13T04:25:50.117Z,12.80
2023-01-13T04:30:53.590Z,12.80
2023-01-13T04:35:57.922Z,12.70
2023-01-13T04:41:00.810Z,12.70
2023-01-13T04:46:03.936Z,12.80
2023-01-13T04:51:08.374Z,12.80
2023-01-13T04:56:11.250Z,12.70
2023-01-13T05:01:14.268Z,12.70
2023-01-13T05:06:18.599Z,12.90
2023-01-13T05:11:39.316Z,12.80
2023-01-13T05:16:59.750Z,12.80
2023-01-13T05:22:21.917Z,12.70
2023-01-13T05:27:24.788Z,12.60
2023-01-13T05:32:28.468Z,12.70
2023-01-13T05:37:32.725Z,12.70
2023-01-13T05:42:53.191Z,12.80
2023-01-13T05:47:56.134Z,12.80
2023-01-13T05:53:00.428Z,12.70
2023-01-13T05:58:03.394Z,12.80
2023-01-13T06:03:07.022Z,12.80
2023-01-13T06:08:11.412Z,12.80
2023-01-13T06:13:14.275Z,12.80
2023-01-13T06:18:17.415Z,12.80
2023-01-13T06:23:21.692Z,12.80
2023-01-13T06:28:24.541Z,12.70
2023-01-13T06:33:31.026Z,12.60
2023-01-13T06:38:39.515Z,12.70
2023-01-13T06:43:42.441Z,12.70
2023-01-13T06:48:45.290Z,12.60
2023-01-13T06:53:49.505Z,12.60
2023-01-13T06:58:52.440Z,12.60
2023-01-13T07:03:55.407Z,12.70
2023-01-13T07:08:59.881Z,12.80
2023-01-13T07:14:26.153Z,12.70
2023-01-13T07:19:29.045Z,12.80
2023-01-13T07:24:33.305Z,12.70
2023-01-13T07:29:37.363Z,12.60
2023-01-13T07:34:40.252Z,12.50
2023-01-13T07:39:45.138Z,12.40
2023-01-13T07:44:48.036Z,12.40
2023-01-13T07:49:51.071Z,12.30
2023-01-13T07:54:55.283Z,12.20
2023-01-13T07:59:58.222Z,12.20
2023-01-13T08:05:01.109Z,12.30
2023-01-13T08:10:05.973Z,12.10
2023-01-13T08:15:10.496Z,11.90
2023-01-13T08:20:13.525Z,11.50
2023-01-13T08:25:18.416Z,11.40
2023-01-13T08:30:22.043Z,11.10
2023-01-13T08:35:25.212Z,11.10
2023-01-13T08:40:29.535Z,11.10
2023-01-13T08:45:32.416Z,11.20
2023-01-13T08:50:35.366Z,11.40
2023-01-13T08:55:41.305Z,11.70
2023-01-13T09:00:45.479Z,11.60
2023-01-13T09:05:48.405Z,11.70
2023-01-13T09:10:52.775Z,11.50
2023-01-13T09:15:56.913Z,11.60
2023-01-13T09:21:00.268Z,11.70
2023-01-13T09:26:04.644Z,11.50
2023-01-13T09:31:07.624Z,11.60
2023-01-13T09:36:10.662Z,11.20
2023-01-13T09:41:35.117Z,11.30
2023-01-13T09:46:46.954Z,11.40
2023-01-13T09:51:56.289Z,11.20
2023-01-13T09:57:00.829Z,11.20
2023-01-13T10:02:17.985Z,11.20
2023-01-13T10:07:21.951Z,11.10
2023-01-13T10:12:46.792Z,10.80
2023-01-13T10:17:54.925Z,10.50
2023-01-13T10:23:06.120Z,10.70
2023-01-13T10:28:13.676Z,10.70
2023-01-13T10:33:18.796Z,10.80
2023-01-13T10:38:24.306Z,10.80
2023-01-13T10:43:29.856Z,10.90
2023-01-13T10:48:42.024Z,10.80
2023-01-13T10:53:50.996Z,10.80
2023-01-13T10:59:13.864Z,10.90
2023-01-13T11:04:28.443Z,10.90
2023-01-13T11:09:32.254Z,10.80
2023-01-13T11:14:41.771Z,10.80
2023-01-13T11:19:51.707Z,10.70
2023-01-13T11:24:58.016Z,10.80
2023-01-13T11:30:09.996Z,10.90
2023-01-13T11:35:18.313Z,10.80
2023-01-13T11:40:28.618Z,10.80
2023-01-13T11:45:42.002Z,10.80
2023-01-13T11:50:51.435Z,11.00
2023-01-13T11:56:06.611Z,11.10
2023-01-13T12:01:29.058Z,11.30
2023-01-13T12:06:37.099Z,11.20
2023-01-13T12:12:08.512Z,11.10
2023-01-13T12:17:21.227Z,11.20
2023-01-13T12:22:28.835Z,11.20
2023-01-13T12:27:41.680Z,11.20
2023-01-13T12:32:47.528Z,11.30
2023-01-13T12:37:58.869Z,11.20
2023-01-13T12:43:27.007Z,11.30
2023-01-13T12:49:06.498Z,11.50
2023-01-13T12:54:34.530Z,11.40
2023-01-13T12:59:37.441Z,11.50
2023-01-13T13:04:48.483Z,11.50
2023-01-13T13:09:56.034Z,11.40
2023-01-13T13:15:06.824Z,11.30
2023-01-13T13:20:54.682Z,11.20
2023-01-13T13:26:03.257Z,11.10
2023-01-13T13:31:17.268Z,11.20
2023-01-13T13:36:56.319Z,11.00
2023-01-13T13:42:28.956Z,10.40
2023-01-13T13:47:37.083Z,10.00
2023-01-13T13:52:45.645Z,10.20
2023-01-13T13:57:50.530Z,10.50
2023-01-13T14:02:55.996Z,10.70
2023-01-13T14:08:08.034Z,10.70
2023-01-13T14:13:15.503Z,10.60
2023-01-13T14:18:21.334Z,10.50
2023-01-13T14:23:28.882Z,10.50
2023-01-13T14:28:36.565Z,10.50
2023-01-13T14:33:42.385Z,10.50
2023-01-13T14:38:48.880Z,10.70
2023-01-13T14:43:55.236Z,10.80
2023-01-13T14:49:01.920Z,10.90
2023-01-13T14:54:53.003Z,11.10
2023-01-13T15:00:19.543Z,11.10
2023-01-13T15:05:42.720Z,11.00
2023-01-13T15:10:50.305Z,10.90
2023-01-13T15:15:55.238Z,11.00
2023-01-13T15:20:58.570Z,11.00
2023-01-13T15:26:03.664Z,11.10
2023-01-13T15:31:06.740Z,11.00
2023-01-13T15:36:20.979Z,11.10
2023-01-13T15:41:44.265Z,11.10
2023-01-13T15:46:47.437Z,11.00
2023-01-13T15:51:53.376Z,11.00
2023-01-13T15:56:58.255Z,11.00
2023-01-13T16:02:03.339Z,11.00
2023-01-13T16:07:16.011Z,10.80
2023-01-13T16:12:20.498Z,10.80
2023-01-13T16:17:25.916Z,10.80
2023-01-13T16:22:29.040Z,10.90
2023-01-13T16:27:33.266Z,10.90
2023-01-13T16:32:42.107Z,11.00
2023-01-13T16:37:47.172Z,10.90
2023-01-13T16:42:51.633Z,10.90
2023-01-13T16:47:54.916Z,10.90
2023-01-13T16:53:05.914Z,10.60
2023-01-13T16:58:17.574Z,10.40
2023-01-13T17:03:20.575Z,10.30
2023-01-13T17:08:23.945Z,10.20
2023-01-13T17:13:28.232Z,10.30
2023-01-13T17:18:31.308Z,10.20
2023-01-13T17:23:34.505Z,10.20
2023-01-13T17:28:38.885Z,10.20
2023-01-13T17:33:41.990Z,10.20
2023-01-13T17:38:44.955Z,10.20
2023-01-13T17:43:49.529Z,10.10
2023-01-13T17:48:54.109Z,10.00
2023-01-13T17:54:21.087Z,10.00
2023-01-13T17:59:29.463Z,10.00
2023-01-13T18:04:32.481Z,9.90
2023-01-13T18:09:35.521Z,9.90
2023-01-13T18:14:39.811Z,9.80
2023-01-13T18:20:00.265Z,9.90
2023-01-13T18:25:30.551Z,9.90
2023-01-13T18:30:34.905Z,10.00
2023-01-13T18:35:39.620Z,9.90
2023-01-13T18:40:44.419Z,9.90
2023-01-13T18:45:52.275Z,9.90
2023-01-13T18:50:55.262Z,10.00
2023-01-13T18:55:59.237Z,10.10
2023-01-13T19:01:05.222Z,10.10
2023-01-13T19:06:12.346Z,10.10
2023-01-13T19:11:16.456Z,10.00
2023-01-13T19:16:22.172Z,10.10
2023-01-13T19:21:25.509Z,10.20
2023-01-13T19:26:28.579Z,10.20
2023-01-13T19:31:32.836Z,10.20
2023-01-13T19:36:35.931Z,10.20
2023-01-13T19:41:56.246Z,10.20
2023-01-13T19:47:00.472Z,10.20
2023-01-13T19:52:03.413Z,10.30
2023-01-13T19:57:06.689Z,10.30
2023-01-13T20:02:16.128Z,10.30
2023-01-13T20:07:19.031Z,10.40
2023-01-13T20:12:22.003Z,10.30
2023-01-13T20:17:26.469Z,10.40
2023-01-13T20:22:31.354Z,10.30
2023-01-13T20:27:34.479Z,10.40
2023-01-13T20:32:53.869Z,10.40
2023-01-13T20:37:57.301Z,10.40
2023-01-13T20:43:02.207Z,10.50
2023-01-13T20:48:06.879Z,10.30
2023-01-13T20:53:12.787Z,10.30
2023-01-13T20:58:15.754Z,10.30
2023-01-13T21:03:19.978Z,10.40
2023-01-13T21:08:23.078Z,10.30
2023-01-13T21:13:47.248Z,10.30
2023-01-13T21:19:10.655Z,10.30
2023-01-13T21:24:19.706Z,10.40
2023-01-13T21:29:23.011Z,10.30
2023-01-13T21:34:27.312Z,10.30
2023-01-13T21:39:30.187Z,10.30
2023-01-13T21:44:50.699Z,10.40
2023-01-13T21:49:55.034Z,10.40
2023-01-13T21:55:15.385Z,10.40
2023-01-13T22:00:21.071Z,10.40
2023-01-13T22:05:26.164Z,10.40
2023-01-13T22:10:30.865Z,10.50
2023-01-13T22:15:34.750Z,10.50
2023-01-13T22:20:38.994Z,10.50
2023-01-13T22:25:42.094Z,10.50
2023-01-13T22:30:45.363Z,10.50
2023-01-13T22:35:55.420Z,10.50
2023-01-13T22:40:58.899Z,10.50
2023-01-13T22:46:03.959Z,10.50
2023-01-13T22:51:09.800Z,10.40
2023-01-13T22:56:18.845Z,10.40
2023-01-13T23:01:22.634Z,10.50
2023-01-13T23:06:28.483Z,10.40
2023-01-13T23:11:31.985Z,10.30
2023-01-13T23:16:36.867Z,10.20
2023-01-13T23:21:41.439Z,10.30
2023-01-13T23:26:44.355Z,10.20
2023-01-13T23:31:47.991Z,10.20
2023-01-13T23:36:52.179Z,10.20
2023-01-13T23:41:55.705Z,10.30
2023-01-13T23:46:58.608Z,10.10
2023-01-13T23:52:02.839Z,10.10
2023-01-13T23:57:05.911Z,10.20
